Flight Track Log - Related Links

Times and Time Zones

All times are in EDT time to prevent confusion due to time zone crossing. See the UAL4234 flight status page for this flight to view local times or setup timezone preferences in your user account.

Time Position Orientation Groundspeed Altitude Reporting Facility
EDT Latitude Longitude Course Direction KTS MPH feet Rate Location/Type
Tue 04:52:57 PM 29.9617 -95.3436 120° Southeast 158 182 500  Level Houston Center
Tue 04:53:21 PM 29.9514 -95.3231 120° Southeast 172 198 1,500 2,133 Climbing Houston Center
Tue 04:53:42 PM 29.9492 -95.3039 98° East 177 204 2,100 1,742 Climbing Houston Center
Tue 04:54:23 PM 29.9392 -95.2572 104° East 232 267 3,300 1,839 Climbing Houston Center
Tue 04:54:44 PM 29.9333 -95.2317 105° East 219 252 4,000 2,530 Climbing Houston Center
Tue 04:55:46 PM 29.9192 -95.1475 101° East 265 305 6,800 2,614 Climbing Houston Center
Tue 04:56:25 PM 29.9081 -95.0825 101° East 284 327 8,400 2,129 Climbing Houston Center
Tue 04:56:48 PM 29.9050 -95.0589 98° East 277 319 9,000 1,535 Climbing Houston Center
Tue 04:57:51 PM 29.8903 -94.9631 100° East 297 342 10,600 1,296 Climbing Houston Center
Tue 04:58:53 PM 29.8858 -94.8486 93° East 353 406 11,700 1,403 Climbing Houston Center
Tue 04:59:55 PM 29.8797 -94.7047 93° East 373 429 13,500 1,694 Climbing Houston Center
Tue 05:00:57 PM 29.8739 -94.5800 93° East 386 444 15,200 1,597 Climbing Houston Center
Tue 05:01:59 PM 29.8686 -94.4547 93° East 391 450 16,800 1,548 Climbing Houston Center
Tue 05:03:01 PM 29.8622 -94.3292 93° East 394 453 18,400 1,548 Climbing Houston Center
Tue 05:04:03 PM 29.8578 -94.2006 92° East 401 461 20,000 1,403 Climbing Houston Center
Tue 05:05:05 PM 29.8544 -94.0678 92° East 408 470 21,300 1,248 Climbing Houston Center
Tue 05:06:08 PM 29.8653 -93.9336 85° East 425 489 22,600 1,392 Climbing Houston Center
Tue 05:07:10 PM 29.8822 -93.7708 83° East 431 496 24,200 1,452 Climbing Houston Center
Tue 05:08:12 PM 29.8964 -93.6353 83° East 430 495 25,600 1,306 Climbing Houston Center
Tue 05:09:14 PM 29.9094 -93.4969 84° East 435 501 26,900 1,306 Climbing Houston Center
Tue 05:10:16 PM 29.9236 -93.3583 83° East 440 506 28,300 1,452 Climbing Houston Center
Tue 05:11:18 PM 29.9406 -93.1939 83° East 436 502 29,900 1,403 Climbing Houston Center
Tue 05:12:20 PM 29.9547 -93.0572 83° East 433 498 31,200 1,258 Climbing Houston Center
Tue 05:13:22 PM 29.9689 -92.9194 83° East 436 502 32,500 1,113 Climbing Houston Center
Tue 05:14:24 PM 29.9808 -92.7808 84° East 436 502 33,500 912 Climbing Houston Center
Tue 05:15:27 PM 29.9925 -92.6403 84° East 441 507 34,400 720 Climbing Houston Center
Tue 05:16:29 PM 30.0050 -92.4703 85° East 445 512 35,000 290 Climbing Houston Center
Tue 05:17:31 PM 30.0172 -92.3181 85° East 472 543 35,000  Level Houston Center
Tue 05:18:33 PM 30.0286 -92.1603 85° East 493 567 35,000  Level Houston Center
Tue 05:19:35 PM 30.0422 -91.9942 85° East 516 594 35,000  Level Houston Center
Tue 05:20:37 PM 30.0550 -91.8256 85° East 527 606 35,000  Level Houston Center
Tue 05:21:39 PM 30.0669 -91.6556 85° East 538 619 35,000  Level Houston Center
Tue 05:22:41 PM 30.0828 -91.4514 85° East 535 616 35,000  Level Houston Center
Tue 05:23:43 PM 30.0956 -91.2808 85° East 534 615 35,000  Level Houston Center
Tue 05:24:46 PM 30.1067 -91.1108 86° East 533 613 35,000  Level Houston Center
Tue 05:25:48 PM 30.1192 -90.9414 85° East 531 611 35,000  Level Houston Center
Tue 05:26:50 PM 30.1586 -90.7783 74° East 526 605 35,000  Level Houston Center
Tue 05:27:52 PM 30.2075 -90.5847 74° East 525 604 35,000  Level Houston Center
Tue 05:28:54 PM 30.2464 -90.4214 75° East 525 604 35,000  Level Houston Center
Tue 05:29:56 PM 30.2861 -90.2586 74° East 528 608 35,000  Level Houston Center
Tue 05:30:58 PM 30.3247 -90.0958 75° East 525 604 35,000 581 Level Houston Center
Tue 05:32:00 PM 30.3622 -89.9350 75° East 516 594 36,200 968 Climbing Houston Center
Tue 05:33:02 PM 30.4042 -89.7575 75° East 503 579 37,000 384 Climbing Houston Center
Tue 05:34:05 PM 30.4397 -89.6103 74° East 506 582 37,000  Level Houston Center
Tue 05:35:07 PM 30.4772 -89.4481 75° East 517 595 37,000  Level Houston Center
Tue 05:36:09 PM 30.5150 -89.2856 75° East 521 600 37,000  Level Houston Center
Tue 05:37:11 PM 30.5586 -89.0892 75° East 523 602 37,000  Level Houston Center
Tue 05:38:13 PM 30.5972 -88.9175 75° East 522 601 37,000  Level Houston Center
Tue 05:39:15 PM 30.6333 -88.7553 75° East 523 602 37,000  Level Houston Center
Tue 05:40:18 PM 30.6722 -88.5944 74° East 521 600 37,000  Level Houston Center
Tue 05:41:19 PM 30.7469 -88.4667 56° Northeast 504 580 37,000  Level Houston Center
Tue 05:42:22 PM 30.8503 -88.3183 51° Northeast 494 568 37,000  Level Houston Center
Tue 05:43:24 PM 30.9367 -88.1950 51° Northeast 494 568 37,000  Level Houston Center
Tue 05:44:26 PM 31.0261 -88.0700 50° Northeast 501 577 37,000  Level Houston Center
Tue 05:45:28 PM 31.1131 -87.9456 51° Northeast 497 572 37,000  Level Houston Center
Tue 05:46:30 PM 31.1994 -87.8217 51° Northeast 494 568 37,000  Level Houston Center
Tue 05:47:32 PM 31.3000 -87.6764 51° Northeast 495 570 37,000  Level Houston Center
Tue 05:48:41 PM 31.3922 -87.5467 50° Northeast 490 564 37,000  Level Atlanta Center
Tue 05:49:41 PM 31.4789 -87.4258 50° Northeast 490 564 37,000  Level Atlanta Center
Tue 05:50:41 PM 31.5639 -87.2997 52° Northeast 490 564 37,000  Level Atlanta Center
Tue 05:51:41 PM 31.6483 -87.1761 51° Northeast 485 558 37,000  Level Atlanta Center
Tue 05:52:41 PM 31.7372 -87.0400 52° Northeast 480 552 37,000  Level Atlanta Center
Tue 05:53:41 PM 31.8194 -86.9206 51° Northeast 480 552 37,000  Level Atlanta Center
Tue 05:54:41 PM 31.9017 -86.7958 52° Northeast 480 552 37,000  Level Atlanta Center
Tue 05:55:41 PM 31.9811 -86.6906 48° Northeast 480 552 37,000  Level Atlanta Center
Tue 05:56:41 PM 32.0650 -86.5681 51° Northeast 480 552 37,000  Level Atlanta Center
Tue 05:57:41 PM 32.1447 -86.4428 53° Northeast 480 552 37,000  Level Atlanta Center
Tue 05:58:41 PM 32.2350 -86.3053 52° Northeast 473 544 37,000  Level Atlanta Center
Tue 05:59:41 PM 32.3100 -86.1989 50° Northeast 479 551 37,000  Level Atlanta Center
Tue 06:00:41 PM 32.3997 -86.0831 47° Northeast 474 545 37,000  Level Atlanta Center
Tue 06:01:41 PM 32.4892 -85.9669 48° Northeast 474 545 37,000  Level Atlanta Center
Tue 06:02:41 PM 32.5828 -85.8483 47° Northeast 481 554 37,000  Level Atlanta Center
Tue 06:03:41 PM 32.6658 -85.7339 49° Northeast 474 545 37,000  Level Atlanta Center
Tue 06:04:41 PM 32.7553 -85.6147 48° Northeast 474 545 37,000  Level Atlanta Center
Tue 06:05:41 PM 32.8050 -85.4672 68° East 467 537 37,000  Level Atlanta Center
Tue 06:06:41 PM 32.8442 -85.3147 73° East 475 547 37,000  Level Atlanta Center
Tue 06:07:41 PM 32.8833 -85.1594 73° East 475 547 37,000  Level Atlanta Center
Tue 06:08:41 PM 32.9222 -84.9964 74° East 469 540 37,000  Level Atlanta Center
Tue 06:09:41 PM 32.9650 -84.8411 72° East 481 554 37,000  Level Atlanta Center
Tue 06:10:41 PM 33.0036 -84.6928 73° East 481 554 37,000  Level Atlanta Center
Tue 06:11:41 PM 33.0419 -84.5344 74° East 474 545 37,000  Level Atlanta Center
Tue 06:12:41 PM 33.0778 -84.3858 74° East 479 551 37,000  Level Atlanta Center
Tue 06:13:41 PM 33.1178 -84.2297 73° East 480 552 37,000  Level Atlanta Center
Tue 06:14:41 PM 33.1556 -84.0761 74° East 480 552 37,000  Level Atlanta Center
Tue 06:15:41 PM 33.1908 -83.9247 74° East 475 547 37,000  Level Atlanta Center
Tue 06:16:41 PM 33.2283 -83.7706 74° East 475 547 37,000  Level Atlanta Center
Tue 06:17:41 PM 33.2675 -83.6164 73° East 480 552 37,000  Level Atlanta Center
Tue 06:18:41 PM 33.3025 -83.4647 75° East 474 545 37,000 -400 Level Atlanta Center
Tue 06:19:41 PM 33.3411 -83.3103 73° East 480 552 36,200 -850 Descending Atlanta Center
Tue 06:20:41 PM 33.3758 -83.1583 75° East 473 544 35,300 -850 Descending Atlanta Center
Tue 06:21:41 PM 33.4142 -83.0036 73° East 479 551 34,500 -750 Descending Atlanta Center
Tue 06:22:41 PM 33.4442 -82.8686 75° East 474 545 33,800 -750 Descending Atlanta Center
Tue 06:23:41 PM 33.4822 -82.7089 74° East 488 562 33,000 -400 Descending Atlanta Center
Tue 06:24:41 PM 33.5161 -82.5539 75° East 488 562 33,000  Level Atlanta Center
Tue 06:25:41 PM 33.5578 -82.3936 73° East 483 556 33,000  Level Atlanta Center
Tue 06:26:41 PM 33.5908 -82.2283 76° East 475 547 33,000  Level Atlanta Center
Tue 06:28:32 PM 33.6556 -81.9544 74° East 498 573 33,000  Level Jacksonville Center
Tue 06:29:32 PM 33.6919 -81.8017 74° East 486 559 33,000  Level Jacksonville Center
Tue 06:30:32 PM 33.7281 -81.6464 74° East 476 548 33,000  Level Jacksonville Center
Tue 06:31:32 PM 33.7619 -81.4936 75° East 476 548 33,000  Level Jacksonville Center
Tue 06:32:32 PM 33.7956 -81.3406 75° East 476 548 33,000  Level Jacksonville Center
Tue 06:33:32 PM 33.8331 -81.1700 75° East 476 548 33,000  Level Jacksonville Center
Tue 06:34:32 PM 33.8664 -81.0192 75° East 468 539 33,000  Level Jacksonville Center
Tue 06:35:32 PM 33.9014 -80.8658 75° East 468 539 33,000  Level Jacksonville Center
Tue 06:36:32 PM 33.9364 -80.7072 75° East 473 544 33,000 -50 Level Jacksonville Center
Tue 06:37:32 PM 33.9733 -80.5536 74° East 473 544 32,900 -700 Descending Jacksonville Center
Tue 06:38:32 PM 34.0589 -80.4436 47° Northeast 437 503 31,600 -1,450 Descending Jacksonville Center
Tue 06:39:32 PM 34.1703 -80.3853 23° Northeast 416 479 30,000 -1,300 Descending Jacksonville Center
Tue 06:40:32 PM 34.2778 -80.3294 23° Northeast 416 479 29,000 -900 Descending Jacksonville Center
Tue 06:41:32 PM 34.3892 -80.2708 23° Northeast 421 484 28,200 -1,150 Descending Jacksonville Center
Tue 06:42:32 PM 34.4986 -80.2144 23° Northeast 421 484 26,700 -1,450 Descending Jacksonville Center
Tue 06:43:32 PM 34.5975 -80.1611 24° Northeast 408 470 25,300 -1,299 Descending Jacksonville Center
Tue 06:44:46 PM 34.7019 -80.1089 22° Northeast 360 414 23,800 -1,030 Descending Washington Center
Tue 06:45:46 PM 34.7939 -80.0508 27° Northeast 367 422 23,000 -400 Descending Washington Center
Tue 06:46:46 PM 34.8786 -79.9617 41° Northeast 378 435 23,000  Level Washington Center
Tue 06:47:46 PM 34.9589 -79.8722 42° Northeast 384 442 23,000  Level Washington Center
Tue 06:48:45 PM 35.0372 -79.7850 42° Northeast 379 436 23,000  Level Washington Center
Tue 06:49:46 PM 35.1197 -79.6956 42° Northeast 384 442 23,000 -496 Level Washington Center
Tue 06:50:46 PM 35.1978 -79.6081 42° Northeast 384 442 22,000 -1,600 Descending Washington Center
Tue 06:51:46 PM 35.2792 -79.5433 33° Northeast 368 423 19,800 -2,560 Descending Washington Center
Tue 06:52:01 PM 35.3069 -79.5269 26° Northeast 342 394 18,800 -2,870 Descending Washington Center
Tue 06:52:32 PM 35.3558 -79.4961 27° Northeast 344 396 17,600 -2,329 Descending Washington Center
Tue 06:53:26 PM 35.4306 -79.4436 30° Northeast 347 399 15,500 -1,946 Descending Washington Center
Tue 06:53:46 PM 35.4478 -79.4267 39° Northeast 341 392 15,200 -1,082 Descending Washington Center
Tue 06:54:27 PM 35.5033 -79.3833 32° Northeast 306 352 14,400 -1,500 Descending Washington Center
Tue 06:54:46 PM 35.5231 -79.3589 45° Northeast 310 357 13,700 -2,100 Descending Washington Center
Tue 06:55:27 PM 35.5539 -79.3042 55° Northeast 302 348 12,300 -1,900 Descending Washington Center
Tue 06:55:46 PM 35.5650 -79.2817 59° Northeast 302 348 11,800 -1,869 Descending Washington Center
Tue 06:56:28 PM 35.6025 -79.2169 55° Northeast 306 352 10,400 -1,800 Descending Washington Center
Tue 06:56:46 PM 35.6136 -79.1972 55° Northeast 302 348 10,000 -1,791 Descending Washington Center
Tue 06:57:35 PM 35.6556 -79.1197 56° Northeast 294 338 8,400 -1,983 Descending Washington Center
Tue 06:58:41 PM 35.7019 -79.0322 57° Northeast 277 319 6,200 -1,603 Descending Washington Center
Tue 06:59:46 PM 35.7478 -78.9550 54° Northeast 282 325 4,900 -1,279 Descending Washington Center
Tue 07:00:43 PM 35.7931 -78.9056 42° Northeast 218 251 3,600 -1,368 Descending Washington Center

Login

Don't have an account? Register now (free) for customized features, flight alerts, and more!